createdAt,value
2019-01-04T00:01:45.791Z,55.83
2019-01-04T00:04:27.741Z,55.59
2019-01-04T00:06:58.145Z,55.35
2019-01-04T00:09:28.490Z,55.00
2019-01-04T00:11:58.860Z,55.00
2019-01-04T00:14:29.667Z,55.11
2019-01-04T00:17:00.037Z,54.76
2019-01-04T00:19:30.371Z,54.76
2019-01-04T00:22:00.740Z,55.56
2019-01-04T00:24:31.123Z,55.29
2019-01-04T00:27:01.444Z,55.34
2019-01-04T00:29:31.847Z,55.34
2019-01-04T00:32:02.228Z,55.23
2019-01-04T00:34:32.584Z,55.23
2019-01-04T00:37:02.972Z,55.29
2019-01-04T00:39:33.271Z,55.25
2019-01-04T00:42:03.580Z,54.90
2019-01-04T00:44:33.952Z,54.90
2019-01-04T00:47:04.293Z,54.82
2019-01-04T00:49:34.770Z,55.33
2019-01-04T00:52:05.104Z,55.33
2019-01-04T00:54:35.514Z,54.87
2019-01-04T00:57:16.616Z,55.17
2019-01-04T01:00:22.135Z,54.52
2019-01-04T01:03:34.169Z,55.57
2019-01-04T01:06:41.022Z,55.57
2019-01-04T01:09:35.050Z,54.64
2019-01-04T01:12:43.352Z,54.72
2019-01-04T01:15:46.464Z,54.64
2019-01-04T01:18:56.850Z,54.65
2019-01-04T01:22:12.918Z,54.88
2019-01-04T01:25:18.480Z,54.88
2019-01-04T01:28:24.041Z,54.16
2019-01-04T01:31:32.693Z,54.37
2019-01-04T01:34:43.975Z,54.37
2019-01-04T01:37:50.553Z,54.50
2019-01-04T01:41:13.663Z,54.50
2019-01-04T01:44:45.607Z,54.45
2019-01-04T01:47:30.900Z,54.29
2019-01-04T01:50:41.895Z,54.29
2019-01-04T01:53:12.280Z,53.31
2019-01-04T01:55:42.657Z,53.73
2019-01-04T01:58:12.956Z,53.73
2019-01-04T02:00:43.341Z,53.65
2019-01-04T02:03:13.810Z,53.65
2019-01-04T02:05:44.149Z,53.75
2019-01-04T02:08:14.562Z,53.75
2019-01-04T02:10:44.928Z,53.81
2019-01-04T02:13:15.290Z,53.38
2019-01-04T02:15:45.676Z,54.30
2019-01-04T02:18:16.042Z,54.30
2019-01-04T02:20:46.422Z,53.04
2019-01-04T02:23:16.899Z,53.22
2019-01-04T02:25:47.251Z,53.35
2019-01-04T02:28:17.553Z,53.98
2019-01-04T02:30:47.890Z,53.07
2019-01-04T02:33:18.232Z,52.77
2019-01-04T02:35:48.574Z,52.61
2019-01-04T02:38:18.944Z,52.61
2019-01-04T02:40:49.309Z,53.98
2019-01-04T02:43:19.679Z,53.08
2019-01-04T02:45:50.155Z,53.08
2019-01-04T02:48:20.536Z,53.05
2019-01-04T02:50:50.981Z,53.55
2019-01-04T02:53:21.360Z,53.84
2019-01-04T02:55:51.727Z,54.09
2019-01-04T02:58:22.074Z,53.78
2019-01-04T03:00:52.503Z,53.78
2019-01-04T03:03:22.909Z,53.98
2019-01-04T03:05:53.278Z,54.30
2019-01-04T03:08:23.649Z,54.32
2019-01-04T03:10:53.987Z,54.08
2019-01-04T03:13:24.364Z,54.08
2019-01-04T03:15:54.772Z,53.61
2019-01-04T03:18:25.147Z,53.55
2019-01-04T03:20:55.512Z,53.50
2019-01-04T03:23:25.847Z,53.69
2019-01-04T03:25:56.226Z,53.02
2019-01-04T03:28:26.556Z,53.07
2019-01-04T03:30:56.924Z,53.26
2019-01-04T03:33:27.215Z,53.26
2019-01-04T03:35:57.551Z,53.78
2019-01-04T03:38:27.900Z,53.78
2019-01-04T03:40:58.323Z,53.47
2019-01-04T03:43:28.657Z,53.24
2019-01-04T03:45:59.181Z,53.05
2019-01-04T03:48:29.542Z,53.05
2019-01-04T03:51:00.260Z,53.21
2019-01-04T03:53:30.616Z,52.90
2019-01-04T03:56:01.029Z,52.79
2019-01-04T03:58:31.359Z,52.79
2019-01-04T04:01:01.654Z,52.87
2019-01-04T04:03:31.961Z,52.85
2019-01-04T04:06:02.362Z,52.26
2019-01-04T04:08:32.693Z,52.73
2019-01-04T04:11:03.062Z,53.13
2019-01-04T04:13:33.470Z,53.13
2019-01-04T04:16:03.815Z,52.51
2019-01-04T04:18:34.155Z,52.64
2019-01-04T04:21:04.583Z,52.50
2019-01-04T04:23:34.951Z,52.07
2019-01-04T04:26:05.311Z,52.37
2019-01-04T04:28:35.688Z,52.16
2019-01-04T04:31:06.048Z,52.16
2019-01-04T04:33:36.456Z,51.58
2019-01-04T04:36:06.797Z,51.58
2019-01-04T04:38:37.175Z,51.55
2019-01-04T04:41:07.514Z,51.69
2019-01-04T04:43:37.889Z,51.79
2019-01-04T04:46:08.188Z,52.39
2019-01-04T04:48:38.546Z,52.39
2019-01-04T04:51:08.874Z,51.71
2019-01-04T04:53:39.264Z,51.49
2019-01-04T04:56:09.568Z,51.55
2019-01-04T04:58:39.901Z,51.83
2019-01-04T05:01:10.318Z,51.46
2019-01-04T05:03:40.749Z,51.60
2019-01-04T05:06:11.095Z,51.60
2019-01-04T05:08:41.435Z,51.25
2019-01-04T05:11:11.765Z,51.25
2019-01-04T05:13:42.114Z,51.64
2019-01-04T05:16:12.491Z,51.30
2019-01-04T05:18:42.835Z,51.85
2019-01-04T05:21:13.251Z,51.85
2019-01-04T05:23:43.689Z,51.11
2019-01-04T05:26:14.004Z,51.85
2019-01-04T05:28:44.360Z,51.85
2019-01-04T05:31:14.727Z,51.50
2019-01-04T05:33:45.127Z,51.50
2019-01-04T05:36:15.499Z,51.37
2019-01-04T05:38:45.880Z,50.96
2019-01-04T05:41:16.255Z,50.96
2019-01-04T05:43:46.597Z,51.41
2019-01-04T05:46:16.948Z,51.55
2019-01-04T05:48:47.286Z,51.00
2019-01-04T05:51:17.698Z,51.61
2019-01-04T05:53:48.126Z,50.49
2019-01-04T05:56:18.513Z,50.49
2019-01-04T05:58:48.847Z,50.69
2019-01-04T06:01:19.260Z,50.69
2019-01-04T06:03:49.603Z,50.85
2019-01-04T06:06:20.054Z,50.98
2019-01-04T06:08:50.470Z,50.79
2019-01-04T06:11:20.825Z,50.79
2019-01-04T06:14:09.374Z,51.08
2019-01-04T06:16:57.473Z,51.08
2019-01-04T06:23:37.256Z,51.45
2019-01-04T06:26:25.649Z,51.09
2019-01-04T06:36:56.415Z,50.11
2019-01-04T14:06:13.000Z,47.24
2019-01-04T14:08:46.660Z,47.52
2019-01-04T14:11:17.032Z,47.23
2019-01-04T14:13:47.361Z,47.17
2019-01-04T14:16:17.694Z,46.80
2019-01-04T14:19:06.217Z,47.23
2019-01-04T14:21:54.339Z,46.98
2019-01-04T14:24:42.457Z,46.86
2019-01-04T14:27:30.491Z,46.93
2019-01-04T14:30:18.985Z,47.21
2019-01-04T14:33:07.288Z,47.31
2019-01-04T14:35:55.735Z,46.76
2019-01-04T14:38:44.070Z,46.87
2019-01-04T14:41:32.360Z,47.12
2019-01-04T14:44:20.832Z,47.47
2019-01-04T14:47:08.920Z,47.06
2019-01-04T14:49:57.064Z,47.03
2019-01-04T14:52:45.501Z,47.21
2019-01-04T14:55:33.726Z,46.78
2019-01-04T14:58:21.803Z,47.23
2019-01-04T15:01:10.175Z,47.23
2019-01-04T15:03:58.578Z,47.41
2019-01-04T15:06:46.730Z,47.82
2019-01-04T15:09:34.758Z,47.93
2019-01-04T15:12:23.045Z,48.21
2019-01-04T15:15:10.890Z,48.10
2019-01-04T15:17:59.294Z,48.30
2019-01-04T15:20:47.592Z,48.68
2019-01-04T15:23:35.690Z,48.76
2019-01-04T15:26:24.032Z,49.01
2019-01-04T15:29:12.413Z,49.45
2019-01-04T15:32:00.707Z,49.71
2019-01-04T15:34:48.938Z,50.37
2019-01-04T15:37:37.063Z,50.61
2019-01-04T15:40:25.216Z,50.41
2019-01-04T15:43:13.704Z,50.66
2019-01-04T15:46:01.786Z,50.57
2019-01-04T15:48:50.049Z,50.61
2019-01-04T15:51:38.030Z,50.83
2019-01-04T15:54:26.177Z,50.83
2019-01-04T15:57:14.273Z,50.97
2019-01-04T16:00:16.053Z,51.35
2019-01-04T16:03:08.607Z,51.11
2019-01-04T16:05:56.949Z,51.24
2019-01-04T16:08:45.131Z,51.36
2019-01-04T16:11:32.922Z,51.62
2019-01-04T16:14:20.742Z,51.56
2019-01-04T16:17:12.050Z,51.48
2019-01-04T16:19:58.586Z,51.79
2019-01-04T16:22:46.664Z,51.73
2019-01-04T16:25:35.100Z,51.57
2019-01-04T16:28:23.214Z,51.56
2019-01-04T16:31:11.300Z,51.33
2019-01-04T16:33:59.743Z,51.36
2019-01-04T16:36:47.855Z,51.08
2019-01-04T16:39:36.204Z,50.94
2019-01-04T16:42:24.251Z,50.72
2019-01-04T16:45:12.611Z,50.58
2019-01-04T16:48:53.859Z,50.60
2019-01-04T16:51:42.023Z,50.60
2019-01-04T16:54:30.321Z,50.60
2019-01-04T16:57:18.932Z,50.56
2019-01-04T17:00:08.799Z,50.69
2019-01-04T17:02:56.934Z,50.60
2019-01-04T17:05:45.230Z,50.68
2019-01-04T17:08:33.406Z,50.79
2019-01-04T17:11:21.516Z,50.72
2019-01-04T17:14:09.657Z,50.70
2019-01-04T17:16:57.905Z,50.63
2019-01-04T17:19:45.981Z,50.48
2019-01-04T17:22:34.062Z,50.64
2019-01-04T17:25:22.560Z,50.52
2019-01-04T17:28:10.635Z,50.46
2019-01-04T17:31:33.282Z,50.50
2019-01-04T17:35:21.338Z,50.79
2019-01-04T17:38:48.683Z,50.86
2019-01-04T17:41:36.977Z,53.65
2019-01-04T17:44:25.034Z,53.65
2019-01-04T17:47:13.285Z,55.80
2019-01-04T17:50:01.518Z,55.46
2019-01-04T17:52:49.530Z,56.61
2019-01-04T17:55:37.897Z,56.45
2019-01-04T17:58:25.980Z,57.28
2019-01-04T18:01:14.388Z,57.21
2019-01-04T18:04:02.428Z,57.07
2019-01-04T18:06:50.758Z,56.65
2019-01-04T18:09:39.119Z,56.94
2019-01-04T18:12:27.221Z,57.25
2019-01-04T18:15:15.433Z,57.26
2019-01-04T18:18:03.562Z,57.36
2019-01-04T18:20:51.919Z,57.36
2019-01-04T18:23:39.981Z,57.31
2019-01-04T18:26:28.569Z,57.59
2019-01-04T18:29:16.432Z,57.59
2019-01-04T18:32:04.377Z,58.04
2019-01-04T18:34:52.437Z,58.04
2019-01-04T18:37:40.659Z,57.91
2019-01-04T18:40:28.736Z,58.49
2019-01-04T18:43:16.779Z,58.49
2019-01-04T18:46:05.333Z,58.28
2019-01-04T18:48:53.654Z,58.17
2019-01-04T18:51:42.062Z,58.16
2019-01-04T18:54:30.110Z,58.14
2019-01-04T18:57:18.487Z,58.14
2019-01-04T19:00:07.759Z,58.44
2019-01-04T19:02:55.991Z,58.63
2019-01-04T19:05:44.096Z,58.48
2019-01-04T19:08:32.232Z,58.48
2019-01-04T19:11:20.640Z,58.32
2019-01-04T19:14:08.772Z,58.32
2019-01-04T19:16:56.809Z,58.26
2019-01-04T19:19:44.880Z,58.26
2019-01-04T19:22:33.261Z,58.52
2019-01-04T19:25:21.645Z,58.38
2019-01-04T19:28:09.975Z,58.38
2019-01-04T19:30:58.001Z,57.74
2019-01-04T19:33:46.093Z,56.99
2019-01-04T19:36:34.175Z,56.99
2019-01-04T19:39:22.297Z,55.79
2019-01-04T19:42:10.401Z,55.79
2019-01-04T19:44:58.858Z,55.47
2019-01-04T19:47:46.961Z,55.47
2019-01-04T19:50:35.210Z,55.64
2019-01-04T19:53:23.340Z,55.68
2019-01-04T19:56:11.388Z,54.92
2019-01-04T19:58:59.468Z,54.92
2019-01-04T20:01:48.016Z,54.96
2019-01-04T20:04:36.062Z,54.25
2019-01-04T20:08:07.375Z,54.10
2019-01-04T20:12:08.564Z,52.41
2019-01-04T20:16:05.178Z,49.41
2019-01-04T20:19:21.305Z,49.41
2019-01-04T20:22:26.450Z,48.95
2019-01-04T20:25:43.723Z,49.58
2019-01-04T20:29:01.018Z,49.43
2019-01-04T20:31:48.608Z,48.56
2019-01-04T20:34:50.359Z,48.32
2019-01-04T20:37:45.428Z,48.32
2019-01-04T20:40:43.758Z,48.20
2019-01-04T20:43:30.672Z,48.88
2019-01-04T20:46:18.466Z,48.75
2019-01-04T20:49:16.793Z,48.83
2019-01-04T20:52:04.700Z,49.14
2019-01-04T20:54:52.690Z,48.96
2019-01-04T20:57:40.370Z,48.87
2019-01-04T21:00:28.273Z,48.87
2019-01-04T21:03:16.143Z,49.15
2019-01-04T21:06:05.365Z,49.15
2019-01-04T21:09:08.260Z,49.20
2019-01-04T21:12:09.001Z,49.20
2019-01-04T21:15:07.046Z,49.71
2019-01-04T21:18:08.431Z,49.71
2019-01-04T21:21:06.430Z,49.27
2019-01-04T21:23:55.669Z,49.31
2019-01-04T21:26:48.003Z,49.31
2019-01-04T21:29:40.093Z,49.31
2019-01-04T21:32:30.630Z,49.49
2019-01-04T21:35:18.178Z,49.21
2019-01-04T21:38:06.130Z,49.87
2019-01-04T21:40:55.665Z,49.87
2019-01-04T21:44:03.245Z,50.13
2019-01-04T21:46:55.361Z,50.13
2019-01-04T21:49:37.845Z,50.84
2019-01-04T21:52:25.621Z,50.96
2019-01-04T21:55:17.940Z,51.09
2019-01-04T21:58:05.521Z,51.14
2019-01-04T22:00:51.677Z,50.53
2019-01-04T22:03:39.716Z,50.53
2019-01-04T22:06:41.335Z,50.79
2019-01-04T22:09:35.396Z,51.71
2019-01-04T22:12:23.414Z,51.71
2019-01-04T22:15:24.622Z,51.25
2019-01-04T22:18:23.312Z,50.89
2019-01-04T22:21:27.716Z,51.19
2019-01-04T22:24:19.795Z,51.29
2019-01-04T22:27:07.418Z,51.40
2019-01-04T22:29:49.257Z,52.24
2019-01-04T22:32:43.129Z,52.24
2019-01-04T22:35:44.579Z,52.02
2019-01-04T22:38:51.846Z,52.23
2019-01-04T22:41:59.344Z,52.39
2019-01-04T22:44:46.825Z,52.28
2019-01-04T22:47:44.858Z,52.63
2019-01-04T22:50:36.930Z,52.97
2019-01-04T22:53:31.252Z,53.17
2019-01-04T22:56:23.219Z,53.25
2019-01-04T22:59:10.768Z,53.27
2019-01-04T23:01:58.684Z,53.53
2019-01-04T23:04:49.593Z,53.64
2019-01-04T23:07:41.876Z,53.67
2019-01-04T23:10:29.766Z,53.84
2019-01-04T23:13:17.864Z,53.77
2019-01-04T23:16:19.293Z,53.51
2019-01-04T23:19:07.582Z,53.51
2019-01-04T23:22:20.906Z,53.89
2019-01-04T23:25:25.241Z,53.72
2019-01-04T23:28:26.346Z,53.91
2019-01-04T23:31:14.015Z,53.82
2019-01-04T23:34:09.052Z,54.11
2019-01-04T23:37:10.410Z,54.06
2019-01-04T23:39:58.094Z,53.84
2019-01-04T23:42:53.366Z,54.22
2019-01-04T23:45:41.253Z,54.02
2019-01-04T23:48:30.418Z,54.05
2019-01-04T23:51:13.024Z,53.75
2019-01-04T23:54:02.998Z,53.18
2019-01-04T23:56:50.658Z,53.18
2019-01-04T23:59:42.990Z,53.73
